This is the latest recevied weather packets stored in our database for station/object NR6G-5. If no packets are shown the sender has not sent any weather packets the latest 1 day(s).
| Time | Temp. | Humidity | Pressure | Rain* | Wind** | Luminosity | Snow |
|---|---|---|---|---|---|---|---|
| 1778086471 | 17.22° C | 72% | 1019.6 hPa | 0 mm | - | - | - |
| 1778085872 | 16.67° C | 72% | 1019.6 hPa | 0 mm | - | - | - |
| 1778082858 | 16.11° C | 74% | 1019.7 hPa | 0 mm | - | - | - |
| 1778081956 | 15.56° C | 75% | 1019.8 hPa | 0 mm | - | - | - |
| 1778081658 | 15.56° C | 75% | 1019.8 hPa | 0 mm | - | - | - |
| 1778080457 | 15° C | 77% | 1019.7 hPa | 0 mm | - | - | - |
| 1778079858 | 14.44° C | 76% | 1019.7 hPa | 0 mm | - | - | - |
| 1778078130 | 14.44° C | 78% | 1019.5 hPa | 0 mm | - | - | - |
| 1778077229 | 13.89° C | 81% | 1019.5 hPa | 0 mm | - | - | - |
| 1778073629 | 10.56° C | 92% | 1018.7 hPa | 0 mm | - | - | - |
| 1778071829 | 10.56° C | 92% | 1018.5 hPa | 0 mm | - | - | - |
| 1778071230 | 10.56° C | 90% | 1018.4 hPa | 0 mm | - | - | - |
| 1778070929 | 10.56° C | 91% | 1018.5 hPa | 0 mm | - | - | - |
| 1778068281 | 11.11° C | 91% | 1018.2 hPa | 0 mm | - | - | - |
| 1778067381 | 10.56° C | 87% | 1018.1 hPa | 0 mm | - | - | - |
| 1778067081 | 11.11° C | 87% | 1018.1 hPa | 0 mm | - | - | - |
| 1778066782 | 11.11° C | 89% | 1018 hPa | 0 mm | - | - | - |
| 1778064680 | 12.22° C | 89% | 1017.7 hPa | 0 mm | - | - | - |
| 1778064380 | 12.22° C | 89% | 1017.8 hPa | 0 mm | - | - | - |
| 1778063499 | 12.22° C | 89% | 1017.7 hPa | 0 mm | - | - | - |
| 1778062602 | 12.22° C | 89% | 1017.6 hPa | 0 mm | - | - | - |
| 1778062004 | 11.67° C | 90% | 1017.5 hPa | 0 mm | - | - | - |
| 1778061403 | 11.67° C | 89% | 1017.3 hPa | 0 mm | - | - | - |
| 1778059299 | 12.22° C | 87% | 1017.2 hPa | 0 mm | - | - | - |
| 1778058701 | 12.78° C | 84% | 1017.2 hPa | 0 mm | - | - | - |
* Rain latest hour (hover to see other rain measurements)
** Current wind speed in m/s (hover to see current wind gust speed)